Terminal Aerodrome Forecast
Issued by NWS Wilmington, OH

Current Version | Previous Version | Graphics & Text | Print | Product List | Glossary On
Versions: 1 2 3 4 5 6 7 8 9 10 11 12 13 14 15 16 17 18 19 20 21 22 23 24 25 26 27 28
753
FTUS41 KILN 140536
TAFCVG
TAF
KCVG 140536Z 1406/1512 00000KT P6SM BKN035
     FM140800 00000KT P6SM FEW025
     FM141600 12005KT P6SM FEW025 BKN200
     FM150800 15007KT 2SM -SN OVC025=

USA.gov is the U.S. government's official web portal to all federal, state and local government web resources and services.